Time;durP1;ratioP1;P1;durP2;ratioP2;P2;SDS_P1;SDS_P2;PMS_P1;PMS_P2;Temp;Humidity;BMP_temperature;BMP_pressure;BME280_temperature;BME280_humidity;BME280_pressure;Samples;Min_cycle;Max_cycle;Signal;HPM_P1;HPM_P2
2021/06/21 00:01:14;;;;;;;5.90;3.45;;;15.40;99.90;;;;;;5053676;28;20068;-68
2021/06/21 00:03:40;;;;;;;7.75;3.22;;;15.40;99.90;;;;;;5053696;28;20029;-68
2021/06/21 00:06:06;;;;;;;10.45;4.95;;;15.30;99.90;;;;;;5053902;28;20515;-68
2021/06/21 00:08:32;;;;;;;13.10;4.95;;;15.30;99.90;;;;;;5053244;28;20120;-68
2021/06/21 00:10:57;;;;;;;9.93;5.25;;;15.50;99.90;;;;;;5053804;28;20064;-68
2021/06/21 00:13:23;;;;;;;12.95;5.57;;;15.50;99.90;;;;;;5052324;28;20057;-68
2021/06/21 00:15:50;;;;;;;8.00;4.00;;;15.40;99.90;;;;;;5053717;28;20067;-68
2021/06/21 00:18:15;;;;;;;9.95;4.78;;;15.50;99.90;;;;;;5053976;28;20090;-68
2021/06/21 00:20:41;;;;;;;12.52;5.75;;;15.40;99.90;;;;;;5052986;28;20040;-68
2021/06/21 00:23:07;;;;;;;13.80;5.75;;;15.40;99.90;;;;;;5053520;28;20037;-68
2021/06/21 00:25:33;;;;;;;13.07;4.65;;;15.50;99.90;;;;;;5053633;28;20495;-68
2021/06/21 00:27:59;;;;;;;10.82;6.30;;;15.60;99.90;;;;;;5053276;28;20041;-68
2021/06/21 00:30:25;;;;;;;10.18;5.35;;;15.50;99.90;;;;;;5052875;28;20037;-68
2021/06/21 00:32:51;;;;;;;10.77;5.20;;;15.50;99.90;;;;;;5053173;28;20098;-68
2021/06/21 00:35:18;;;;;;;10.45;4.82;;;15.40;99.90;;;;;;5053408;28;20040;-67
2021/06/21 00:37:45;;;;;;;7.32;3.72;;;15.40;99.90;;;;;;5053333;28;20037;-68
2021/06/21 00:40:11;;;;;;;9.13;4.57;;;15.40;99.90;;;;;;5052999;28;20045;-68
2021/06/21 00:42:41;;;;;;;9.07;4.05;;;15.40;99.90;;;;;;5053293;28;20041;-68
2021/06/21 00:45:08;;;;;;;9.10;4.70;;;15.20;99.90;;;;;;5053247;28;20057;-68
2021/06/21 00:47:33;;;;;;;12.95;5.60;;;15.20;99.90;;;;;;5053231;28;20041;-68
2021/06/21 00:49:59;;;;;;;9.65;5.15;;;15.20;99.90;;;;;;5052686;28;20044;-68
2021/06/21 00:52:25;;;;;;;10.40;4.63;;;15.20;99.90;;;;;;5056275;28;20045;-68
2021/06/21 00:55:00;;;;;;;9.07;4.38;;;15.20;99.90;;;;;;5057704;28;20069;-67
2021/06/21 00:57:28;;;;;;;10.40;5.50;;;15.20;99.90;;;;;;5057296;28;20127;-67
2021/06/21 00:59:59;;;;;;;10.10;4.32;;;15.20;99.90;;;;;;5056727;28;20045;-67
2021/06/21 01:02:26;;;;;;;12.73;5.00;;;15.20;99.90;;;;;;5057574;28;20053;-67
2021/06/21 01:04:52;;;;;;;5.03;3.85;;;15.30;99.90;;;;;;5057113;28;20052;-67
2021/06/21 01:07:18;;;;;;;5.32;3.90;;;15.50;99.90;;;;;;5057169;28;20041;-67
2021/06/21 01:09:44;;;;;;;6.20;3.03;;;15.40;99.90;;;;;;5056596;28;20051;-67
2021/06/21 01:12:43;;;;;;;7.18;3.20;;;15.30;99.90;;;;;;5056869;28;20041;-68
2021/06/21 01:15:10;;;;;;;7.68;3.40;;;15.30;99.90;;;;;;5056781;28;20424;-68
2021/06/21 01:17:55;;;;;;;6.03;3.30;;;15.30;99.90;;;;;;5057101;28;20056;-68
2021/06/21 01:20:57;;;;;;;7.57;3.05;;;15.20;99.90;;;;;;5056658;28;20072;-68
2021/06/21 01:23:57;;;;;;;4.78;3.05;;;15.30;99.90;;;;;;5056620;28;20400;-68
2021/06/21 01:26:42;;;;;;;6.78;2.60;;;15.20;99.90;;;;;;5056854;28;20049;-68
2021/06/21 01:29:32;;;;;;;5.13;2.85;;;15.30;99.90;;;;;;5056649;28;20040;-68
2021/06/21 01:32:06;;;;;;;6.38;2.40;;;15.30;99.90;;;;;;5056489;28;20041;-68
2021/06/21 01:34:34;;;;;;;6.03;2.13;;;15.10;99.90;;;;;;5056564;28;20517;-68
2021/06/21 01:37:02;;;;;;;4.05;2.00;;;15.20;99.90;;;;;;5056374;28;20041;-68
2021/06/21 01:39:32;;;;;;;3.08;1.92;;;15.20;99.90;;;;;;5056201;28;20032;-68
2021/06/21 01:42:03;;;;;;;4.40;2.10;;;15.20;99.90;;;;;;5056176;28;20041;-68
2021/06/21 01:44:33;;;;;;;6.32;2.75;;;14.90;99.90;;;;;;5056472;28;20409;-68
2021/06/21 01:47:00;;;;;;;3.40;1.83;;;15.00;99.90;;;;;;5056780;28;20115;-68
2021/06/21 01:49:30;;;;;;;5.18;2.35;;;15.10;99.90;;;;;;5055895;28;20490;-68
2021/06/21 01:51:59;;;;;;;3.83;2.40;;;15.20;99.90;;;;;;5055965;28;20444;-68
2021/06/21 01:54:29;;;;;;;16.75;2.65;;;15.20;99.90;;;;;;5056745;28;20110;-68
2021/06/21 01:56:55;;;;;;;6.88;1.90;;;15.10;99.90;;;;;;5056555;28;20049;-68
2021/06/21 01:59:26;;;;;;;4.13;1.85;;;15.20;99.90;;;;;;5055863;28;20041;-68
2021/06/21 02:01:57;;;;;;;6.43;2.30;;;15.20;99.90;;;;;;5055631;28;20174;-68
2021/06/21 02:04:25;;;;;;;6.35;2.25;;;15.20;99.90;;;;;;5055278;28;20044;-68
2021/06/21 02:06:52;;;;;;;6.97;2.90;;;15.20;99.90;;;;;;5055845;28;20033;-69
2021/06/21 02:09:22;;;;;;;4.78;2.15;;;15.20;99.90;;;;;;5055644;28;20049;-68
2021/06/21 02:11:52;;;;;;;3.33;2.08;;;15.10;99.90;;;;;;5055905;28;20044;-68
2021/06/21 02:14:22;;;;;;;8.80;2.30;;;15.10;99.90;;;;;;5056025;28;20457;-68
2021/06/21 02:16:50;;;;;;;3.90;2.10;;;15.00;99.90;;;;;;5055777;28;20041;-68
2021/06/21 02:19:17;;;;;;;4.20;2.60;;;15.00;99.90;;;;;;5055719;28;20048;-68
2021/06/21 02:21:43;;;;;;;6.25;2.53;;;15.00;99.90;;;;;;5056191;28;20041;-68
2021/06/21 02:24:09;;;;;;;4.47;2.65;;;15.10;99.90;;;;;;5055709;28;20043;-68
2021/06/21 02:26:35;;;;;;;5.07;2.60;;;15.10;99.90;;;;;;5055777;28;20048;-68
2021/06/21 02:29:01;;;;;;;8.88;3.45;;;15.00;99.90;;;;;;5055120;28;20044;-68
2021/06/21 02:31:28;;;;;;;8.70;4.22;;;15.00;99.90;;;;;;5055123;28;20127;-69
2021/06/21 02:33:55;;;;;;;11.30;5.25;;;14.90;99.90;;;;;;5055687;28;20040;-68
2021/06/21 02:36:21;;;;;;;7.72;5.30;;;14.90;99.90;;;;;;5055323;28;20040;-68
2021/06/21 02:38:46;;;;;;;8.68;6.38;;;15.00;99.90;;;;;;5054918;28;20047;-68
2021/06/21 02:41:12;;;;;;;9.82;6.50;;;15.00;99.90;;;;;;5055200;28;20045;-68
2021/06/21 02:43:38;;;;;;;16.15;7.82;;;15.00;99.90;;;;;;5055170;28;20045;-68
2021/06/21 02:46:04;;;;;;;14.25;8.43;;;15.00;99.90;;;;;;5055643;28;20045;-68
2021/06/21 02:48:30;;;;;;;14.35;8.52;;;14.90;99.90;;;;;;5054770;28;20441;-68
2021/06/21 02:50:56;;;;;;;15.40;8.73;;;14.90;99.90;;;;;;5055146;28;20120;-68
2021/06/21 02:53:44;;;;;;;13.50;7.60;;;14.80;99.90;;;;;;5055033;28;20045;-68
2021/06/21 02:56:24;;;;;;;12.15;7.82;;;14.80;99.90;;;;;;5055071;28;20568;-68
2021/06/21 02:58:57;;;;;;;11.82;6.80;;;14.80;99.90;;;;;;5054656;28;20082;-68
2021/06/21 03:01:25;;;;;;;18.30;7.20;;;14.70;99.90;;;;;;5054992;28;20508;-68
2021/06/21 03:03:54;;;;;;;7.90;5.75;;;14.70;99.90;;;;;;5055151;28;20044;-68
2021/06/21 03:06:21;;;;;;;15.60;6.05;;;14.70;99.90;;;;;;5055050;28;20049;-68
2021/06/21 03:08:48;;;;;;;15.13;6.57;;;14.70;99.90;;;;;;5054374;28;20098;-68
2021/06/21 03:11:15;;;;;;;13.10;6.03;;;14.60;99.90;;;;;;5054622;28;20106;-68
2021/06/21 03:13:44;;;;;;;11.32;5.30;;;14.50;99.90;;;;;;5054368;28;20417;-68
2021/06/21 03:16:10;;;;;;;11.95;5.68;;;14.50;99.90;;;;;;5054567;28;20041;-68
2021/06/21 03:18:36;;;;;;;10.38;5.03;;;14.50;99.90;;;;;;5054211;28;20047;-68
2021/06/21 03:21:03;;;;;;;7.85;4.53;;;14.60;99.90;;;;;;5054428;28;20047;-68
2021/06/21 03:23:30;;;;;;;9.07;4.75;;;14.60;99.90;;;;;;5054463;28;20041;-68
2021/06/21 03:25:59;;;;;;;8.73;4.38;;;14.50;99.90;;;;;;5054592;28;20086;-68
2021/06/21 03:28:28;;;;;;;12.20;5.38;;;14.50;99.90;;;;;;5054579;28;20040;-68
2021/06/21 03:31:02;;;;;;;10.30;5.47;;;14.40;99.90;;;;;;5054631;28;20045;-68
2021/06/21 03:33:28;;;;;;;6.28;4.03;;;14.40;99.90;;;;;;5054319;28;20481;-68
2021/06/21 03:35:55;;;;;;;16.50;5.88;;;14.50;99.90;;;;;;5054398;28;20401;-68
2021/06/21 03:38:23;;;;;;;10.35;4.20;;;14.30;99.90;;;;;;5054134;28;20033;-68
2021/06/21 03:40:50;;;;;;;10.88;4.63;;;14.20;99.90;;;;;;5052847;28;20124;-68
2021/06/21 03:43:21;;;;;;;8.98;4.40;;;14.20;99.90;;;;;;5052976;28;20041;-68
2021/06/21 03:45:48;;;;;;;11.23;4.30;;;14.40;99.90;;;;;;5054007;28;20040;-68
2021/06/21 03:48:14;;;;;;;8.90;3.83;;;14.40;99.90;;;;;;5054500;28;20040;-68
2021/06/21 03:50:40;;;;;;;8.85;4.57;;;14.30;99.90;;;;;;5053934;28;20393;-68
2021/06/21 03:53:07;;;;;;;7.22;4.07;;;14.30;99.90;;;;;;5053964;28;20033;-68
2021/06/21 03:55:33;;;;;;;10.57;4.45;;;14.20;99.90;;;;;;5053950;28;20431;-68
2021/06/21 03:57:59;;;;;;;8.38;4.57;;;14.20;99.90;;;;;;5054205;28;20136;-68
2021/06/21 04:00:27;;;;;;;7.63;4.65;;;14.20;99.90;;;;;;5053357;28;20111;-68
2021/06/21 04:02:55;;;;;;;9.20;4.32;;;14.20;99.90;;;;;;5053643;28;20055;-68
2021/06/21 04:05:22;;;;;;;8.10;4.63;;;14.20;99.90;;;;;;5053702;28;20408;-68
2021/06/21 04:07:48;;;;;;;6.20;3.88;;;14.20;99.90;;;;;;5053954;28;20398;-68
2021/06/21 04:10:16;;;;;;;9.23;4.80;;;14.20;99.90;;;;;;5053141;28;20055;-68
2021/06/21 04:12:42;;;;;;;8.07;4.88;;;14.30;99.90;;;;;;5053838;28;20049;-68
2021/06/21 04:15:11;;;;;;;9.73;4.93;;;14.30;99.90;;;;;;5053721;28;20032;-68
2021/06/21 04:17:37;;;;;;;8.98;5.32;;;14.30;99.90;;;;;;5053491;28;20048;-68
2021/06/21 04:20:05;;;;;;;11.55;6.13;;;14.30;99.90;;;;;;5053063;28;20044;-68
2021/06/21 04:22:32;;;;;;;14.45;6.88;;;14.30;99.90;;;;;;5053538;28;20064;-68
2021/06/21 04:24:58;;;;;;;10.95;6.30;;;14.30;99.90;;;;;;5053075;28;20041;-68
2021/06/21 04:27:24;;;;;;;9.00;6.18;;;14.20;99.90;;;;;;5052849;28;20052;-68
2021/06/21 04:29:49;;;;;;;11.00;6.13;;;14.30;99.90;;;;;;5052915;28;20037;-68
2021/06/21 04:32:15;;;;;;;7.82;5.20;;;14.30;99.90;;;;;;5053260;28;20049;-68
2021/06/21 04:34:41;;;;;;;12.32;6.47;;;14.30;99.90;;;;;;5053179;28;20517;-68
2021/06/21 04:37:07;;;;;;;10.15;5.88;;;14.20;99.90;;;;;;5053246;28;20040;-68
2021/06/21 04:39:41;;;;;;;10.68;6.20;;;14.20;99.90;;;;;;5053080;28;20068;-68
2021/06/21 04:42:07;;;;;;;10.75;5.47;;;14.20;99.90;;;;;;5053141;28;20091;-68
2021/06/21 04:44:46;;;;;;;12.73;7.13;;;14.10;99.90;;;;;;5053596;28;20048;-68
2021/06/21 04:47:12;;;;;;;14.02;6.43;;;14.10;99.90;;;;;;5053002;28;20049;-68
2021/06/21 04:49:44;;;;;;;13.65;6.75;;;14.40;99.90;;;;;;5052579;28;20493;-68
2021/06/21 04:52:11;;;;;;;12.90;7.43;;;14.30;99.90;;;;;;5053108;28;20041;-68
2021/06/21 04:54:37;;;;;;;13.23;8.35;;;14.20;99.90;;;;;;5053282;28;20041;-68
2021/06/21 04:57:04;;;;;;;15.27;8.55;;;14.40;99.90;;;;;;5053514;28;20045;-68
2021/06/21 04:59:30;;;;;;;15.98;8.35;;;14.40;99.90;;;;;;5052821;28;20040;-69
2021/06/21 05:01:56;;;;;;;15.65;8.77;;;14.30;99.90;;;;;;5053001;28;20040;-68
2021/06/21 05:04:22;;;;;;;15.77;9.65;;;14.30;99.90;;;;;;5053019;28;20081;-68
2021/06/21 05:06:48;;;;;;;17.00;9.15;;;14.30;99.90;;;;;;5053016;28;20072;-68
2021/06/21 05:09:14;;;;;;;17.17;9.80;;;14.30;99.90;;;;;;5052619;28;20115;-68
2021/06/21 05:11:40;;;;;;;19.67;10.18;;;14.30;99.90;;;;;;5053394;28;20048;-68
2021/06/21 05:14:06;;;;;;;15.45;7.70;;;14.20;99.90;;;;;;5052869;28;20041;-68
2021/06/21 05:16:31;;;;;;;19.15;8.65;;;14.10;99.90;;;;;;5053357;28;20033;-67
2021/06/21 05:18:57;;;;;;;14.15;6.85;;;14.20;99.90;;;;;;5051296;28;20087;-66
2021/06/21 05:21:23;;;;;;;12.27;7.47;;;14.20;99.90;;;;;;5053049;28;20560;-67
2021/06/21 05:23:48;;;;;;;15.88;8.32;;;14.20;99.90;;;;;;5052885;28;20401;-67
2021/06/21 05:26:14;;;;;;;17.63;9.45;;;14.30;99.90;;;;;;5053157;28;20155;-67
2021/06/21 05:28:40;;;;;;;15.32;9.20;;;14.20;99.90;;;;;;5052600;28;20493;-67
2021/06/21 05:31:06;;;;;;;16.33;8.32;;;14.20;99.90;;;;;;5052805;28;20040;-67
2021/06/21 05:33:32;;;;;;;18.35;8.93;;;14.20;99.90;;;;;;5052437;28;20044;-67
2021/06/21 05:35:57;;;;;;;23.25;7.85;;;14.20;99.90;;;;;;5052560;28;20037;-67
2021/06/21 05:38:23;;;;;;;16.63;7.50;;;14.10;99.90;;;;;;5055756;28;20106;-70
2021/06/21 05:40:49;;;;;;;16.20;8.73;;;14.20;99.90;;;;;;5056266;28;20061;-68
2021/06/21 05:43:14;;;;;;;11.85;6.65;;;14.30;99.90;;;;;;5056967;28;20040;-68
2021/06/21 05:45:40;;;;;;;14.75;6.97;;;14.20;99.90;;;;;;5056209;28;20044;-68
2021/06/21 05:48:06;;;;;;;15.70;7.18;;;14.20;99.90;;;;;;5056263;28;20033;-68
2021/06/21 05:50:32;;;;;;;15.27;7.38;;;14.10;99.90;;;;;;5055821;28;20072;-68
2021/06/21 05:52:58;;;;;;;21.02;8.23;;;14.10;99.90;;;;;;5056176;28;20122;-68
2021/06/21 05:55:24;;;;;;;21.17;7.40;;;14.20;99.90;;;;;;5056404;28;20041;-68
2021/06/21 05:57:53;;;;;;;17.50;8.55;;;14.20;99.90;;;;;;5056121;28;20557;-68
2021/06/21 06:00:21;;;;;;;20.02;8.20;;;14.20;99.90;;;;;;5055517;28;20497;-68
2021/06/21 06:02:47;;;;;;;16.38;7.63;;;14.10;99.90;;;;;;5056065;28;20122;-68
2021/06/21 06:05:14;;;;;;;12.27;7.18;;;14.20;99.90;;;;;;5056112;28;20053;-68
2021/06/21 06:07:40;;;;;;;16.52;8.15;;;14.20;99.90;;;;;;5055970;28;20048;-68
2021/06/21 06:10:07;;;;;;;14.40;6.82;;;14.30;99.90;;;;;;5055410;28;20131;-68
2021/06/21 06:12:33;;;;;;;13.18;6.93;;;14.30;99.90;;;;;;5055735;28;20127;-68
2021/06/21 06:14:59;;;;;;;16.27;6.47;;;14.30;99.90;;;;;;5055750;28;20036;-68
2021/06/21 06:17:25;;;;;;;9.98;5.75;;;14.10;99.90;;;;;;5055841;28;20040;-68
2021/06/21 06:19:50;;;;;;;15.18;7.28;;;14.00;99.90;;;;;;5055389;28;20064;-68
2021/06/21 06:22:16;;;;;;;9.70;6.18;;;14.10;99.90;;;;;;5055771;28;20515;-68
2021/06/21 06:24:42;;;;;;;14.10;7.05;;;14.00;99.90;;;;;;5055552;28;20114;-68
2021/06/21 06:27:08;;;;;;;12.18;6.40;;;14.10;99.90;;;;;;5055518;28;20183;-68
2021/06/21 06:29:34;;;;;;;13.63;5.75;;;14.10;99.90;;;;;;5055069;28;20413;-68
2021/06/21 06:32:01;;;;;;;8.90;5.32;;;14.20;99.90;;;;;;5055057;28;20507;-68
2021/06/21 06:34:27;;;;;;;11.52;5.35;;;14.20;99.90;;;;;;5055016;28;20481;-68
2021/06/21 06:36:53;;;;;;;11.40;5.30;;;14.20;99.90;;;;;;5054852;28;20037;-68
2021/06/21 06:39:20;;;;;;;11.13;5.15;;;14.20;99.90;;;;;;5054784;28;20041;-68
2021/06/21 06:41:46;;;;;;;10.38;5.70;;;14.00;99.90;;;;;;5055015;28;20500;-68
2021/06/21 06:44:12;;;;;;;11.88;5.82;;;14.10;99.90;;;;;;5055242;28;20123;-68
2021/06/21 06:46:38;;;;;;;10.85;5.35;;;14.10;99.90;;;;;;5055349;28;20525;-68
2021/06/21 06:49:04;;;;;;;7.70;4.13;;;14.10;99.90;;;;;;5054243;28;20049;-68
2021/06/21 06:51:51;;;;;;;7.30;4.18;;;14.20;99.90;;;;;;5055479;28;20059;-68
2021/06/21 06:57:00;;;;;;;10.10;5.13;;;14.10;99.90;;;;;;5054934;28;20481;-68
2021/06/21 06:59:27;;;;;;;14.00;5.75;;;14.20;99.90;;;;;;5054770;28;20040;-68
2021/06/21 07:01:53;;;;;;;12.75;4.70;;;14.20;99.90;;;;;;5053949;28;20048;-68
2021/06/21 07:04:19;;;;;;;8.90;4.82;;;14.20;99.90;;;;;;5055162;28;20397;-68
2021/06/21 07:06:45;;;;;;;11.68;5.30;;;14.20;99.90;;;;;;5054757;28;20136;-68
2021/06/21 07:09:11;;;;;;;10.00;4.85;;;14.20;99.90;;;;;;5054439;28;20144;-68
2021/06/21 07:11:37;;;;;;;9.23;4.60;;;14.30;99.90;;;;;;5053655;28;20091;-68
2021/06/21 07:14:04;;;;;;;14.68;4.43;;;14.30;99.90;;;;;;5054861;28;20044;-68
2021/06/21 07:16:31;;;;;;;10.50;4.43;;;14.30;99.90;;;;;;5054608;28;20108;-68
2021/06/21 07:18:57;;;;;;;12.18;4.82;;;14.30;99.90;;;;;;5054168;28;20474;-68
2021/06/21 07:21:22;;;;;;;8.05;4.50;;;14.40;99.90;;;;;;5054534;28;20037;-68
2021/06/21 07:23:48;;;;;;;9.05;5.15;;;14.20;99.90;;;;;;5054513;28;20124;-68
2021/06/21 07:26:14;;;;;;;11.15;5.82;;;14.20;99.90;;;;;;5054460;28;20044;-68
2021/06/21 07:28:40;;;;;;;9.48;5.28;;;14.30;99.90;;;;;;5053895;28;20049;-68
2021/06/21 07:31:06;;;;;;;10.55;4.68;;;14.30;99.90;;;;;;5054690;28;20041;-68
2021/06/21 07:33:32;;;;;;;15.18;5.35;;;14.20;99.90;;;;;;5054134;28;20115;-68
2021/06/21 07:36:02;;;;;;;13.55;4.53;;;14.30;99.90;;;;;;5054473;28;20041;-68
2021/06/21 07:38:28;;;;;;;10.48;3.97;;;14.20;99.90;;;;;;5054080;28;20064;-68
2021/06/21 07:40:54;;;;;;;13.85;5.32;;;14.30;99.90;;;;;;5054056;28;20479;-68
2021/06/21 07:43:20;;;;;;;11.00;4.28;;;14.20;99.90;;;;;;5054079;28;20044;-68
2021/06/21 07:45:47;;;;;;;13.43;5.63;;;14.20;99.90;;;;;;5054035;28;20408;-68
2021/06/21 07:48:13;;;;;;;9.38;4.25;;;14.20;99.90;;;;;;5053914;28;20490;-68
2021/06/21 07:50:39;;;;;;;11.00;4.35;;;14.30;99.90;;;;;;5053589;28;20120;-68
2021/06/21 07:53:06;;;;;;;9.50;3.75;;;14.20;99.90;;;;;;5053809;28;20037;-68
2021/06/21 07:55:33;;;;;;;14.55;5.32;;;14.20;99.90;;;;;;5053976;28;20458;-68
2021/06/21 07:57:58;;;;;;;8.50;4.13;;;14.20;99.90;;;;;;5053763;28;20064;-68
2021/06/21 08:00:25;;;;;;;11.38;4.10;;;14.10;99.90;;;;;;5053280;28;20072;-67
2021/06/21 08:02:52;;;;;;;9.45;4.55;;;14.20;99.90;;;;;;5053927;28;20547;-68
2021/06/21 08:05:18;;;;;;;10.73;4.65;;;14.20;99.90;;;;;;5054037;28;20045;-68
2021/06/21 08:07:45;;;;;;;7.50;4.47;;;14.10;99.90;;;;;;5053806;28;20056;-68
2021/06/21 08:10:12;;;;;;;12.05;4.40;;;14.00;99.90;;;;;;5053185;28;20033;-68
2021/06/21 08:12:38;;;;;;;10.27;4.40;;;14.00;99.90;;;;;;5053990;28;20076;-68
2021/06/21 08:15:13;;;;;;;9.68;5.78;;;14.00;99.90;;;;;;5053665;28;20041;-69
2021/06/21 08:17:42;;;;;;;11.60;4.30;;;14.00;99.90;;;;;;5036371;28;20045;-68
2021/06/21 08:20:09;;;;;;;9.90;4.47;;;14.00;99.90;;;;;;5053003;28;20090;-68
2021/06/21 08:22:35;;;;;;;8.95;3.83;;;14.00;99.90;;;;;;5053601;28;20049;-68
2021/06/21 08:25:02;;;;;;;9.45;4.18;;;14.00;99.90;;;;;;5053325;28;20098;-68
2021/06/21 08:27:29;;;;;;;17.23;5.05;;;13.90;99.90;;;;;;5053365;28;20037;-68
2021/06/21 08:29:55;;;;;;;11.20;3.75;;;13.90;99.90;;;;;;5053103;28;20037;-68
2021/06/21 08:32:21;;;;;;;12.63;4.05;;;14.00;99.90;;;;;;5053417;28;20041;-69
2021/06/21 08:34:46;;;;;;;8.60;3.95;;;14.00;99.90;;;;;;5053652;28;20040;-70
2021/06/21 08:37:12;;;;;;;10.73;4.35;;;14.00;99.90;;;;;;5053211;28;20120;-69
2021/06/21 08:39:38;;;;;;;8.10;4.38;;;14.00;99.90;;;;;;5053345;28;20037;-69
2021/06/21 08:42:07;;;;;;;7.53;3.90;;;13.90;99.90;;;;;;5053210;28;20041;-69
2021/06/21 08:44:35;;;;;;;8.90;4.10;;;14.00;99.90;;;;;;5053292;28;20049;-69
2021/06/21 08:47:04;;;;;;;10.82;4.65;;;14.00;99.90;;;;;;5052075;28;20116;-69
2021/06/21 08:49:34;;;;;;;10.15;4.50;;;13.90;99.90;;;;;;5052978;28;20037;-69
2021/06/21 08:52:01;;;;;;;10.85;4.50;;;14.00;99.90;;;;;;5052892;28;20119;-70
2021/06/21 08:54:29;;;;;;;10.65;4.22;;;13.90;99.90;;;;;;5052411;28;20060;-69
2021/06/21 08:56:58;;;;;;;10.73;5.38;;;14.00;99.90;;;;;;5052012;28;20501;-69
2021/06/21 08:59:26;;;;;;;8.48;3.65;;;14.00;99.90;;;;;;5052020;28;20120;-70
2021/06/21 09:01:53;;;;;;;11.13;3.72;;;14.00;99.90;;;;;;5053050;28;20076;-70
2021/06/21 09:04:19;;;;;;;9.30;4.18;;;14.10;99.90;;;;;;5053031;28;20045;-70
2021/06/21 09:06:45;;;;;;;10.57;3.03;;;14.20;99.90;;;;;;5053176;28;20520;-70
2021/06/21 09:09:11;;;;;;;9.82;3.83;;;14.10;99.90;;;;;;5052806;28;20045;-70
2021/06/21 09:11:46;;;;;;;10.88;3.47;;;14.00;99.90;;;;;;5052981;28;20056;-70
2021/06/21 09:14:31;;;;;;;9.35;3.20;;;14.00;99.90;;;;;;5056875;28;20045;-70
2021/06/21 09:17:10;;;;;;;8.48;2.95;;;13.90;99.90;;;;;;5056367;28;20473;-70
2021/06/21 09:19:57;;;;;;;8.90;3.20;;;13.80;99.90;;;;;;5056490;28;20116;-70
2021/06/21 09:22:23;;;;;;;9.38;3.17;;;13.80;99.90;;;;;;5056313;28;20041;-69
2021/06/21 09:24:49;;;;;;;10.30;2.55;;;13.70;99.90;;;;;;5057316;28;20485;-69
2021/06/21 09:27:20;;;;;;;10.15;2.67;;;13.50;99.90;;;;;;5055484;28;20047;-69
2021/06/21 09:29:46;;;;;;;9.50;3.15;;;13.50;99.90;;;;;;5056244;28;20492;-69
2021/06/21 09:32:12;;;;;;;6.95;3.38;;;13.50;99.90;;;;;;5056667;28;20488;-70
2021/06/21 09:34:43;;;;;;;5.82;2.80;;;13.50;99.90;;;;;;5056533;28;20051;-70
2021/06/21 09:37:11;;;;;;;9.68;3.13;;;13.60;99.90;;;;;;5038500;28;20447;-70
2021/06/21 09:39:41;;;;;;;5.72;2.50;;;13.60;99.90;;;;;;5056157;28;20459;-69
2021/06/21 09:42:24;;;;;;;11.90;2.92;;;13.60;99.90;;;;;;5056359;28;20075;-66
2021/06/21 09:44:52;;;;;;;7.95;2.20;;;13.40;99.90;;;;;;5056477;28;20068;-68
2021/06/21 09:47:25;;;;;;;8.55;3.15;;;13.40;99.90;;;;;;5056263;28;20037;-68
2021/06/21 09:49:52;;;;;;;;;;;13.40;99.90;;;;;;5056665;28;20036;-68
2021/06/21 09:52:32;;;;;;;8.63;2.70;;;13.40;99.90;;;;;;5056208;28;19917;-68
2021/06/21 09:54:58;;;;;;;7.78;2.67;;;13.30;99.90;;;;;;5056560;28;20105;-68
2021/06/21 09:57:25;;;;;;;5.38;2.55;;;13.40;99.90;;;;;;5056444;28;20064;-68
2021/06/21 09:59:52;;;;;;;9.70;3.08;;;13.40;99.90;;;;;;5055645;28;20041;-68
2021/06/21 10:02:22;;;;;;;9.55;3.03;;;13.30;99.90;;;;;;5056076;28;20057;-68
2021/06/21 10:04:48;;;;;;;6.95;3.08;;;13.40;99.90;;;;;;5056320;28;20055;-68
2021/06/21 10:07:33;;;;;;;10.27;2.88;;;13.50;99.90;;;;;;5055887;28;20040;-68
2021/06/21 10:10:09;;;;;;;6.18;2.40;;;13.40;99.90;;;;;;5055685;28;20041;-68
2021/06/21 10:12:35;;;;;;;9.57;2.95;;;13.40;99.90;;;;;;5056339;28;20429;-68
2021/06/21 10:15:03;;;;;;;7.28;2.72;;;13.40;99.90;;;;;;5055726;28;20037;-68
2021/06/21 10:17:28;;;;;;;14.88;4.30;;;13.50;99.90;;;;;;5056124;28;20041;-68
2021/06/21 10:19:55;;;;;;;12.18;3.13;;;13.50;99.90;;;;;;5055324;28;20041;-69
2021/06/21 10:22:22;;;;;;;11.15;3.42;;;13.50;99.90;;;;;;5055755;28;20044;-68
2021/06/21 10:24:58;;;;;;;10.15;3.20;;;13.60;99.90;;;;;;5054328;28;20511;-68
2021/06/21 10:27:26;;;;;;;6.75;3.28;;;13.60;99.90;;;;;;5055525;28;20047;-68
2021/06/21 10:29:55;;;;;;;9.02;3.25;;;13.50;99.90;;;;;;5055626;28;20047;-68
2021/06/21 10:32:23;;;;;;;8.65;3.25;;;13.60;99.90;;;;;;5055411;28;20051;-68
2021/06/21 10:34:49;;;;;;;15.27;4.47;;;13.60;99.90;;;;;;5055362;28;20408;-68
2021/06/21 10:37:24;;;;;;;10.55;3.08;;;13.60;99.90;;;;;;5055795;28;20037;-68
2021/06/21 10:39:52;;;;;;;8.45;3.47;;;13.70;99.90;;;;;;5054931;28;20037;-67
2021/06/21 10:42:19;;;;;;;11.20;3.60;;;13.70;99.90;;;;;;5055424;28;20136;-67
2021/06/21 10:44:58;;;;;;;7.72;3.28;;;13.80;99.90;;;;;;5055513;28;20047;-68
2021/06/21 10:47:34;;;;;;;8.30;2.95;;;13.70;99.90;;;;;;5055322;28;20036;-66
2021/06/21 10:50:07;;;;;;;10.65;4.05;;;13.80;99.90;;;;;;5053433;28;20033;-67
2021/06/21 10:52:51;;;;;;;11.35;2.83;;;13.70;99.90;;;;;;5055600;28;20075;-67
2021/06/21 10:55:23;;;;;;;8.20;3.50;;;13.80;99.90;;;;;;5053852;28;20485;-67
2021/06/21 10:57:56;;;;;;;13.07;3.58;;;13.70;99.90;;;;;;5054090;28;20037;-67
2021/06/21 11:00:33;;;;;;;11.90;3.45;;;13.70;99.90;;;;;;5054530;28;20041;-67
2021/06/21 11:03:00;;;;;;;5.05;2.70;;;13.70;99.90;;;;;;5055301;28;20114;-68
2021/06/21 11:05:42;;;;;;;9.30;3.15;;;13.80;99.90;;;;;;5055002;28;20075;-67
2021/06/21 11:08:39;;;;;;;10.98;3.20;;;13.70;99.90;;;;;;5054968;28;20041;-67
2021/06/21 11:11:34;;;;;;;10.40;3.38;;;13.70;99.90;;;;;;5054652;28;20037;-67
2021/06/21 11:14:05;;;;;;;9.10;2.83;;;13.60;99.90;;;;;;5047335;28;20099;-67
2021/06/21 11:16:31;;;;;;;12.65;3.65;;;13.80;99.90;;;;;;5034771;28;20101;-67
2021/06/21 11:19:21;;;;;;;9.93;3.15;;;13.80;99.90;;;;;;5034286;28;20073;-67
2021/06/21 11:21:53;;;;;;;9.35;3.22;;;13.70;99.90;;;;;;5034467;28;20044;-67
2021/06/21 11:24:38;;;;;;;9.55;3.42;;;13.70;99.90;;;;;;5034544;28;20037;-67
2021/06/21 11:27:11;;;;;;;11.25;4.30;;;13.70;99.90;;;;;;5034243;28;20143;-67
2021/06/21 11:29:54;;;;;;;8.40;3.28;;;13.70;99.90;;;;;;5033794;28;20064;-67
2021/06/21 11:32:22;;;;;;;10.15;3.70;;;13.70;99.90;;;;;;5033161;28;20429;-67
2021/06/21 11:35:00;;;;;;;8.35;3.15;;;13.60;99.90;;;;;;5034293;28;20038;-67
2021/06/21 11:37:44;;;;;;;10.00;3.25;;;13.60;99.90;;;;;;5034199;28;20076;-68
2021/06/21 11:40:13;;;;;;;6.07;3.13;;;13.60;99.90;;;;;;5033984;28;20038;-67
2021/06/21 11:43:02;;;;;;;9.88;3.33;;;13.60;99.90;;;;;;5034360;28;20041;-67
2021/06/21 11:45:50;;;;;;;10.80;3.47;;;13.60;99.90;;;;;;5028790;28;20060;-67
2021/06/21 11:48:20;;;;;;;7.50;3.58;;;13.70;99.90;;;;;;5034244;28;20037;-67
2021/06/21 11:50:45;;;;;;;9.68;2.97;;;13.70;99.90;;;;;;5033866;28;20046;-67
2021/06/21 11:53:11;;;;;;;7.35;3.17;;;13.60;99.90;;;;;;5034124;28;20038;-67
2021/06/21 11:55:37;;;;;;;5.82;3.13;;;13.70;99.90;;;;;;5033705;28;20497;-67
2021/06/21 11:58:03;;;;;;;6.45;3.00;;;13.60;99.90;;;;;;5033761;28;20085;-67
2021/06/21 12:00:34;;;;;;;13.35;3.17;;;13.80;99.90;;;;;;5033286;28;20037;-67
2021/06/21 12:03:07;;;;;;;5.50;2.55;;;13.70;99.90;;;;;;5033152;28;20175;-67
2021/06/21 12:05:33;;;;;;;6.68;2.78;;;13.70;99.90;;;;;;5031834;28;20045;-67
2021/06/21 12:07:59;;;;;;;8.32;2.80;;;13.60;99.90;;;;;;5030570;28;20390;-67
2021/06/21 12:10:25;;;;;;;8.90;3.13;;;13.60;99.90;;;;;;5033319;28;20100;-67
2021/06/21 12:12:55;;;;;;;6.80;2.25;;;13.60;99.90;;;;;;5033778;28;20431;-68
2021/06/21 12:15:34;;;;;;;7.97;3.10;;;13.40;99.90;;;;;;5033693;28;20069;-68
2021/06/21 12:18:00;;;;;;;6.05;2.78;;;13.50;99.90;;;;;;5033541;28;20440;-68
2021/06/21 12:20:27;;;;;;;7.38;2.70;;;13.50;99.90;;;;;;5033067;28;20041;-68
2021/06/21 12:22:54;;;;;;;11.27;3.17;;;13.60;99.90;;;;;;5032283;28;20048;-67
2021/06/21 12:25:37;;;;;;;8.55;3.03;;;13.60;99.90;;;;;;5033508;28;20033;-67
2021/06/21 12:28:23;;;;;;;4.68;2.90;;;13.70;99.90;;;;;;5033375;28;20041;-68
2021/06/21 12:30:57;;;;;;;4.28;3.15;;;13.70;99.90;;;;;;5031987;28;20041;-67
2021/06/21 12:33:31;;;;;;;8.15;3.75;;;13.70;99.90;;;;;;5033445;28;20059;-67
2021/06/21 12:36:18;;;;;;;8.30;3.45;;;13.70;99.90;;;;;;5034002;28;20068;-68
2021/06/21 12:38:54;;;;;;;6.68;2.95;;;13.80;99.90;;;;;;5033036;28;20037;-68
2021/06/21 12:41:25;;;;;;;9.23;3.25;;;13.80;99.90;;;;;;5032653;28;20045;-68
2021/06/21 12:44:05;;;;;;;8.43;3.10;;;13.80;99.90;;;;;;5033341;28;20145;-66
2021/06/21 12:46:36;;;;;;;7.63;3.38;;;13.80;99.90;;;;;;5032663;28;20072;-67
2021/06/21 12:49:11;;;;;;;5.50;2.92;;;13.90;99.90;;;;;;5032845;28;20097;-67
2021/06/21 12:51:38;;;;;;;7.07;2.83;;;14.10;99.90;;;;;;5033404;28;20041;-67
2021/06/21 12:54:05;;;;;;;8.63;2.90;;;13.90;99.90;;;;;;5033546;28;20046;-67
2021/06/21 12:56:37;;;;;;;7.63;2.88;;;13.90;99.90;;;;;;5033094;28;20045;-67